Time;durP1;ratioP1;P1;durP2;ratioP2;P2;SDS_P1;SDS_P2;PMS_P1;PMS_P2;Temp;Humidity;BMP_temperature;BMP_pressure;BME280_temperature;BME280_humidity;BME280_pressure;Samples;Min_cycle;Max_cycle;Signal;HPM_P1;HPM_P2
2022/07/02 00:00:55;;;;;;;25.63;16.50;;;24.90;99.90;;;;;;4972017;28;20421;-72
2022/07/02 00:03:31;;;;;;;25.80;16.38;;;24.90;99.90;;;;;;4971586;28;20030;-71
2022/07/02 00:05:59;;;;;;;27.02;17.30;;;25.00;99.90;;;;;;4971747;28;20101;-70
2022/07/02 00:08:27;;;;;;;31.90;17.77;;;25.00;99.90;;;;;;4958450;28;20405;-73
2022/07/02 00:10:54;;;;;;;29.55;16.83;;;25.00;99.90;;;;;;4951641;28;20027;-71
2022/07/02 00:13:21;;;;;;;21.05;15.85;;;25.00;99.90;;;;;;4952099;28;20032;-74
2022/07/02 00:15:47;;;;;;;25.70;17.23;;;25.10;99.90;;;;;;4952529;28;20027;-71
2022/07/02 00:18:14;;;;;;;28.27;17.67;;;25.10;99.90;;;;;;4951978;28;20031;-74
2022/07/02 00:20:44;;;;;;;33.33;17.40;;;25.00;99.90;;;;;;4952749;28;20478;-74
2022/07/02 00:23:10;;;;;;;27.85;17.70;;;24.90;99.90;;;;;;4955147;28;20046;-74
2022/07/02 00:25:47;;;;;;;28.83;16.38;;;24.60;99.90;;;;;;4952252;28;20109;-73
2022/07/02 00:28:16;;;;;;;30.05;19.17;;;24.70;99.90;;;;;;4951821;28;20074;-73
2022/07/02 00:30:47;;;;;;;25.25;17.23;;;24.70;99.90;;;;;;4952201;28;20066;-68
2022/07/02 00:33:15;;;;;;;32.15;17.42;;;24.70;99.90;;;;;;4951740;28;20501;-73
2022/07/02 00:35:42;;;;;;;27.45;18.55;;;24.70;99.90;;;;;;4954018;28;20478;-74
2022/07/02 00:38:08;;;;;;;26.17;16.52;;;24.50;99.90;;;;;;4951780;28;20027;-73
2022/07/02 00:40:34;;;;;;;22.60;15.95;;;24.60;99.90;;;;;;4951655;28;20035;-73
2022/07/02 00:43:01;;;;;;;23.65;17.13;;;24.70;99.90;;;;;;4952166;28;20027;-67
2022/07/02 00:45:28;;;;;;;25.42;17.70;;;24.80;99.90;;;;;;4951863;28;20027;-71
2022/07/02 00:47:55;;;;;;;21.42;16.80;;;24.80;99.90;;;;;;4951840;28;20054;-74
2022/07/02 00:50:24;;;;;;;29.25;16.63;;;24.70;99.90;;;;;;4951882;28;20031;-74
2022/07/02 00:52:50;;;;;;;26.02;17.10;;;24.80;99.90;;;;;;4951692;28;20082;-72
2022/07/02 00:55:16;;;;;;;24.77;17.55;;;24.70;99.90;;;;;;4952139;28;20031;-74
2022/07/02 00:57:45;;;;;;;27.90;18.67;;;24.70;99.90;;;;;;4951699;28;20038;-72
2022/07/02 01:00:15;;;;;;;26.70;18.08;;;24.50;99.90;;;;;;4951619;28;20020;-73
2022/07/02 01:02:44;;;;;;;25.88;17.92;;;24.50;99.90;;;;;;4951672;28;20031;-68
2022/07/02 01:05:13;;;;;;;28.92;19.10;;;24.40;99.90;;;;;;4951791;28;20498;-69
2022/07/02 01:07:42;;;;;;;27.65;17.42;;;24.30;99.90;;;;;;4957135;28;20103;-75
2022/07/02 01:10:18;;;;;;;27.00;18.17;;;24.20;99.90;;;;;;4981390;28;20043;-75
2022/07/02 01:12:46;;;;;;;29.73;19.80;;;24.10;99.90;;;;;;4991859;28;20030;-74
2022/07/02 01:15:12;;;;;;;28.80;19.63;;;24.10;99.90;;;;;;4991524;28;20073;-73
2022/07/02 01:17:38;;;;;;;27.05;19.55;;;24.10;99.90;;;;;;4991559;28;20065;-73
2022/07/02 01:20:04;;;;;;;32.47;20.52;;;24.10;99.90;;;;;;4991769;28;20030;-73
2022/07/02 01:22:35;;;;;;;28.05;19.80;;;24.20;99.90;;;;;;4994033;28;20540;-75
2022/07/02 01:25:01;;;;;;;26.67;20.02;;;24.20;99.90;;;;;;4995203;28;20037;-74
2022/07/02 01:27:27;;;;;;;26.60;17.98;;;24.10;99.90;;;;;;4994881;28;20073;-74
2022/07/02 01:29:53;;;;;;;24.90;17.17;;;24.10;99.90;;;;;;5000366;28;20170;-70
2022/07/02 01:32:19;;;;;;;20.58;15.52;;;24.10;99.90;;;;;;4995210;28;20529;-73
2022/07/02 01:34:48;;;;;;;19.20;12.60;;;24.20;99.90;;;;;;4996832;28;20109;-73
2022/07/02 01:37:18;;;;;;;26.85;11.73;;;24.20;99.90;;;;;;4996737;28;20040;-76
2022/07/02 01:39:45;;;;;;;18.58;9.88;;;24.30;99.90;;;;;;5004456;28;20404;-62
2022/07/02 01:42:12;;;;;;;18.90;9.32;;;24.30;99.90;;;;;;4998252;28;20026;-75
2022/07/02 01:44:39;;;;;;;31.58;8.35;;;24.30;99.90;;;;;;5004068;28;20025;-74
2022/07/02 01:47:07;;;;;;;24.90;7.25;;;24.30;99.90;;;;;;4999053;28;20041;-76
2022/07/02 01:49:35;;;;;;;31.85;7.65;;;24.40;99.90;;;;;;4995041;28;20382;-74
2022/07/02 01:52:02;;;;;;;17.83;7.18;;;24.40;99.90;;;;;;5005416;28;20117;-74
2022/07/02 01:54:28;;;;;;;29.25;6.90;;;24.40;99.90;;;;;;4995268;28;20113;-74
2022/07/02 01:56:54;;;;;;;15.95;5.80;;;24.40;99.90;;;;;;4994778;28;20445;-74
2022/07/02 01:59:21;;;;;;;17.73;6.32;;;24.40;99.90;;;;;;4994887;28;20057;-74
2022/07/02 02:01:48;;;;;;;25.08;5.60;;;24.40;99.90;;;;;;4995059;28;20026;-74
2022/07/02 02:04:13;;;;;;;25.88;6.20;;;24.40;99.90;;;;;;4994911;28;20056;-70
2022/07/02 02:06:40;;;;;;;28.60;5.25;;;24.40;99.90;;;;;;4994879;28;20782;-74
2022/07/02 02:09:06;;;;;;;23.48;5.60;;;24.30;99.90;;;;;;4994384;28;20047;-74
2022/07/02 02:11:32;;;;;;;14.55;4.60;;;24.20;99.90;;;;;;4994520;28;20121;-73
2022/07/02 02:13:59;;;;;;;18.42;4.47;;;24.20;99.90;;;;;;4994461;28;20110;-75
2022/07/02 02:16:29;;;;;;;18.27;5.40;;;24.10;99.90;;;;;;4994746;28;20018;-73
2022/07/02 02:18:57;;;;;;;18.13;4.68;;;24.00;99.90;;;;;;4994767;28;20026;-75
2022/07/02 02:21:24;;;;;;;15.10;3.88;;;23.90;99.90;;;;;;4997521;28;21988;-75
2022/07/02 02:23:51;;;;;;;11.02;3.88;;;23.80;99.90;;;;;;4994456;28;20023;-75
2022/07/02 02:26:17;;;;;;;13.65;4.72;;;23.80;99.90;;;;;;4994108;28;20096;-75
2022/07/02 02:28:43;;;;;;;14.73;3.50;;;23.80;99.90;;;;;;4993830;28;20088;-73
2022/07/02 02:31:09;;;;;;;10.50;4.05;;;23.80;99.90;;;;;;4994142;28;20532;-75
2022/07/02 02:33:35;;;;;;;16.63;3.63;;;23.70;99.90;;;;;;4989318;28;20030;-74
2022/07/02 02:36:01;;;;;;;15.65;3.38;;;23.60;99.90;;;;;;4994220;28;20106;-74
2022/07/02 02:38:27;;;;;;;15.40;3.08;;;23.60;99.90;;;;;;4994030;28;20046;-75
2022/07/02 02:40:53;;;;;;;9.85;2.97;;;23.60;99.90;;;;;;4993833;28;20088;-73
2022/07/02 02:43:19;;;;;;;24.88;3.80;;;23.40;99.90;;;;;;4993461;28;20527;-69
2022/07/02 02:45:45;;;;;;;21.63;3.65;;;23.40;99.90;;;;;;4993493;28;20028;-74
2022/07/02 02:48:11;;;;;;;12.13;3.17;;;23.40;99.90;;;;;;4993642;28;20389;-72
2022/07/02 02:50:37;;;;;;;6.68;2.60;;;23.40;99.90;;;;;;4993890;28;20040;-74
2022/07/02 02:53:03;;;;;;;8.60;2.88;;;23.40;99.90;;;;;;4993703;28;20031;-74
2022/07/02 02:55:29;;;;;;;9.60;2.65;;;23.40;99.90;;;;;;4993665;28;20034;-75
2022/07/02 02:57:55;;;;;;;7.82;2.72;;;23.30;99.90;;;;;;4993759;28;20119;-74
2022/07/02 03:00:21;;;;;;;7.47;3.10;;;23.30;99.90;;;;;;4994076;28;20054;-74
2022/07/02 03:02:47;;;;;;;8.80;2.70;;;23.30;99.90;;;;;;4993570;28;20054;-73
2022/07/02 03:05:13;;;;;;;6.82;2.60;;;23.20;99.90;;;;;;4993237;28;20120;-73
2022/07/02 03:07:39;;;;;;;8.20;2.35;;;23.20;99.90;;;;;;4992669;28;20046;-74
2022/07/02 03:10:05;;;;;;;8.98;3.17;;;23.20;99.90;;;;;;4992842;28;20072;-73
2022/07/02 03:12:31;;;;;;;8.63;2.92;;;23.20;99.90;;;;;;4992629;28;20026;-74
2022/07/02 03:14:57;;;;;;;11.35;2.50;;;23.20;99.90;;;;;;4993028;28;20025;-74
2022/07/02 03:17:23;;;;;;;7.75;2.35;;;23.20;99.90;;;;;;4992801;28;20046;-75
2022/07/02 03:19:51;;;;;;;9.57;2.70;;;23.20;99.90;;;;;;4992993;28;20128;-73
2022/07/02 03:22:17;;;;;;;15.57;2.50;;;23.20;99.90;;;;;;4992619;28;20037;-73
2022/07/02 03:24:43;;;;;;;7.07;2.30;;;23.30;99.90;;;;;;4998494;28;20030;-75
2022/07/02 03:27:09;;;;;;;7.18;2.38;;;23.20;99.90;;;;;;4992611;28;20027;-75
2022/07/02 03:29:34;;;;;;;10.90;2.67;;;23.30;99.90;;;;;;4990552;28;20026;-73
2022/07/02 03:32:00;;;;;;;3.80;1.88;;;23.40;99.90;;;;;;4991301;28;20057;-75
2022/07/02 03:34:26;;;;;;;8.63;2.85;;;23.50;99.90;;;;;;4989137;28;20058;-75
2022/07/02 03:36:52;;;;;;;7.38;2.58;;;23.50;99.90;;;;;;4992810;28;20031;-74
2022/07/02 03:39:18;;;;;;;9.07;2.42;;;23.60;99.90;;;;;;4992286;28;20026;-73
2022/07/02 03:41:43;;;;;;;6.93;2.50;;;23.60;99.90;;;;;;4992515;28;20142;-74
2022/07/02 03:44:09;;;;;;;10.27;2.60;;;23.60;99.90;;;;;;4992122;28;20026;-74
2022/07/02 03:46:35;;;;;;;7.93;2.95;;;23.70;99.90;;;;;;4991818;28;20536;-74
2022/07/02 03:49:01;;;;;;;9.25;3.05;;;24.00;99.90;;;;;;4991174;28;20362;-73
2022/07/02 03:51:27;;;;;;;5.45;2.38;;;24.20;99.90;;;;;;4997061;28;20026;-74
2022/07/02 03:53:52;;;;;;;6.53;2.30;;;24.40;99.90;;;;;;4991716;28;20489;-74
2022/07/02 03:56:18;;;;;;;7.10;2.72;;;24.30;99.90;;;;;;4988550;28;20049;-74
2022/07/02 03:58:44;;;;;;;12.10;2.45;;;24.20;99.90;;;;;;4989364;28;20026;-75
2022/07/02 04:01:10;;;;;;;9.10;2.45;;;24.60;99.90;;;;;;4985380;28;20029;-68
2022/07/02 04:03:37;;;;;;;5.82;1.83;;;24.50;99.90;;;;;;4985908;28;20030;-72
2022/07/02 04:06:03;;;;;;;8.27;2.25;;;24.70;99.90;;;;;;4988880;28;20030;-73
2022/07/02 04:08:29;;;;;;;11.10;2.20;;;24.60;99.90;;;;;;4990953;28;20061;-73
2022/07/02 04:10:55;;;;;;;4.85;2.13;;;24.60;99.90;;;;;;4989080;28;20377;-69
2022/07/02 04:13:21;;;;;;;7.38;2.80;;;24.50;99.90;;;;;;4991169;28;20030;-74
2022/07/02 04:15:46;;;;;;;8.98;2.80;;;24.20;99.90;;;;;;4991080;28;20022;-71
2022/07/02 04:18:12;;;;;;;8.43;2.63;;;23.90;99.90;;;;;;4991001;28;20369;-74
2022/07/02 04:20:38;;;;;;;8.90;2.67;;;23.90;99.90;;;;;;4989138;28;20034;-73
2022/07/02 04:23:04;;;;;;;5.55;2.53;;;23.90;99.90;;;;;;4987530;28;20078;-74
2022/07/02 04:25:30;;;;;;;10.75;2.47;;;23.80;99.90;;;;;;4987456;28;20638;-75
2022/07/02 04:27:56;;;;;;;6.85;2.10;;;23.90;99.90;;;;;;4977114;28;20030;-71
2022/07/02 04:30:22;;;;;;;10.18;3.88;;;23.80;99.90;;;;;;4981314;28;20026;-68
2022/07/02 04:32:48;;;;;;;13.98;3.42;;;23.80;99.90;;;;;;4990348;28;20708;-75
2022/07/02 04:35:13;;;;;;;13.25;5.65;;;23.90;99.90;;;;;;4989901;28;20077;-74
2022/07/02 04:37:40;;;;;;;12.32;5.32;;;23.70;99.90;;;;;;4988336;28;20033;-74
2022/07/02 04:40:07;;;;;;;7.55;2.72;;;23.70;99.90;;;;;;4988938;28;20024;-74
2022/07/02 04:42:32;;;;;;;7.28;2.15;;;23.60;99.90;;;;;;4995921;28;20037;-73
2022/07/02 04:44:58;;;;;;;8.57;2.55;;;23.60;99.90;;;;;;4995023;28;20030;-73
2022/07/02 04:47:24;;;;;;;7.55;2.88;;;23.50;99.90;;;;;;4998591;28;20045;-73
2022/07/02 04:49:50;;;;;;;5.88;2.50;;;23.50;99.90;;;;;;4988208;28;20109;-74
2022/07/02 04:52:17;;;;;;;16.13;4.22;;;23.50;99.90;;;;;;4988737;28;20117;-64
2022/07/02 04:54:42;;;;;;;14.77;3.25;;;23.40;99.90;;;;;;4985840;28;20030;-72
2022/07/02 04:57:08;;;;;;;8.43;3.47;;;23.10;99.90;;;;;;4963462;28;20026;-68
2022/07/02 04:59:35;;;;;;;14.05;4.18;;;22.80;99.90;;;;;;4976630;28;20054;-72
2022/07/02 05:02:00;;;;;;;12.35;3.20;;;22.70;99.90;;;;;;4991524;28;20057;-64
2022/07/02 05:04:26;;;;;;;12.90;3.55;;;22.70;99.90;;;;;;4969453;28;20027;-70
2022/07/02 05:06:52;;;;;;;10.60;4.70;;;22.70;99.90;;;;;;4987749;28;20484;-65
2022/07/02 05:09:18;;;;;;;9.32;3.88;;;22.80;99.90;;;;;;4988518;28;20047;-77
2022/07/02 05:11:44;;;;;;;14.65;3.92;;;22.80;99.90;;;;;;4982663;28;20084;-79
2022/07/02 05:14:10;;;;;;;8.85;3.95;;;22.70;99.90;;;;;;4978931;28;20117;-81
2022/07/02 05:16:36;;;;;;;13.98;4.57;;;22.10;99.90;;;;;;4987126;28;20023;-85
2022/07/02 05:19:02;;;;;;;15.63;5.15;;;22.30;99.90;;;;;;4975581;28;20058;-66
2022/07/02 05:21:27;;;;;;;14.98;5.28;;;22.30;99.90;;;;;;4973306;28;20113;-77
2022/07/02 05:23:53;;;;;;;10.88;4.43;;;22.20;99.90;;;;;;4971244;28;20481;-77
2022/07/02 05:26:20;;;;;;;8.57;4.45;;;22.30;99.90;;;;;;4970014;28;20038;-75
2022/07/02 05:28:46;;;;;;;15.35;4.25;;;22.20;99.90;;;;;;4970174;28;20101;-70
2022/07/02 05:31:11;;;;;;;10.93;4.47;;;22.10;99.90;;;;;;4970321;28;20105;-75
2022/07/02 05:33:37;;;;;;;10.77;4.78;;;22.20;99.90;;;;;;4970538;28;20019;-78
2022/07/02 05:36:03;;;;;;;18.00;6.88;;;21.90;99.90;;;;;;4978164;28;20560;-78
2022/07/02 05:38:29;;;;;;;16.55;5.30;;;21.80;99.90;;;;;;4979905;28;20563;-77
2022/07/02 05:40:55;;;;;;;14.93;6.82;;;21.80;99.90;;;;;;4957076;28;20019;-78
2022/07/02 05:43:21;;;;;;;16.75;6.57;;;21.80;99.90;;;;;;4969963;28;20093;-79
2022/07/02 05:45:48;;;;;;;16.00;7.20;;;21.70;99.90;;;;;;4970531;28;20544;-73
2022/07/02 05:48:14;;;;;;;19.65;6.18;;;21.70;99.90;;;;;;4973230;28;20069;-74
2022/07/02 05:50:40;;;;;;;8.40;4.32;;;21.60;99.90;;;;;;4972196;28;20465;-79
2022/07/02 05:53:06;;;;;;;8.68;4.22;;;21.60;99.90;;;;;;4983058;28;20062;-82
2022/07/02 05:55:32;;;;;;;7.57;4.28;;;21.70;99.90;;;;;;4991266;28;20050;-76
2022/07/02 05:57:58;;;;;;;9.27;3.97;;;21.70;99.90;;;;;;4990888;28;20044;-82
2022/07/02 06:00:24;;;;;;;10.32;3.45;;;21.80;99.90;;;;;;4990596;28;20161;-74
2022/07/02 06:02:49;;;;;;;10.65;3.63;;;21.90;99.90;;;;;;4991671;28;20069;-81
2022/07/02 06:08:00;;;;;;;5.15;3.63;;;21.90;99.90;;;;;;4990177;28;20057;-80
2022/07/02 06:10:26;;;;;;;4.95;3.00;;;22.00;99.90;;;;;;4993571;28;20018;-71
2022/07/02 06:12:52;;;;;;;7.45;3.13;;;22.10;99.90;;;;;;4995004;28;20030;-80
2022/07/02 06:15:19;;;;;;;7.95;3.92;;;22.10;99.90;;;;;;4993496;28;20023;-79
2022/07/02 06:17:46;;;;;;;9.57;3.72;;;22.10;99.90;;;;;;4993544;28;20028;-78
2022/07/02 06:20:14;;;;;;;16.90;3.78;;;22.10;99.90;;;;;;4994037;28;20117;-77
2022/07/02 06:22:40;;;;;;;7.13;3.70;;;22.10;99.90;;;;;;4993414;28;20062;-77
2022/07/02 06:25:07;;;;;;;5.85;2.72;;;22.10;99.90;;;;;;4993307;28;20132;-78
2022/07/02 06:27:34;;;;;;;13.27;3.60;;;22.20;99.90;;;;;;4993110;28;20497;-79
2022/07/02 06:30:03;;;;;;;5.63;3.20;;;22.20;99.90;;;;;;4993642;28;20015;-78
2022/07/02 06:32:30;;;;;;;7.00;2.70;;;22.40;99.90;;;;;;4993640;28;20022;-78
2022/07/02 06:34:59;;;;;;;9.13;3.55;;;22.40;99.90;;;;;;4993704;28;20026;-76
2022/07/02 06:37:26;;;;;;;8.27;3.22;;;22.50;99.90;;;;;;4993881;28;20036;-79
2022/07/02 06:39:51;;;;;;;7.47;2.72;;;22.60;99.90;;;;;;4993552;28;20100;-76
2022/07/02 06:42:22;;;;;;;9.20;2.92;;;22.60;99.90;;;;;;4994098;28;20057;-79
2022/07/02 06:44:54;;;;;;;10.85;3.58;;;22.60;99.90;;;;;;4975988;28;20034;-78
2022/07/02 06:47:21;;;;;;;9.02;3.40;;;22.60;99.90;;;;;;5001920;28;20126;-75
2022/07/02 06:49:48;;;;;;;10.43;2.80;;;22.60;99.90;;;;;;4996697;28;20427;-74
2022/07/02 06:52:14;;;;;;;5.50;2.50;;;22.50;99.90;;;;;;4993647;28;20060;-72
2022/07/02 06:54:40;;;;;;;10.07;3.25;;;22.50;99.90;;;;;;4993759;28;20023;-74
2022/07/02 06:57:06;;;;;;;9.32;2.85;;;22.50;99.90;;;;;;4997930;28;20033;-74
2022/07/02 06:59:32;;;;;;;8.30;3.08;;;22.70;99.90;;;;;;5002762;28;20024;-73
2022/07/02 07:01:59;;;;;;;5.05;2.70;;;22.60;99.90;;;;;;4993358;28;20034;-73
2022/07/02 07:04:28;;;;;;;11.27;3.50;;;22.50;99.90;;;;;;4993323;28;20037;-72
2022/07/02 07:06:55;;;;;;;6.10;3.17;;;22.70;99.90;;;;;;4992534;28;20038;-75
2022/07/02 07:09:24;;;;;;;9.98;3.08;;;22.60;99.90;;;;;;4992234;28;20042;-74
2022/07/02 07:11:50;;;;;;;6.40;2.70;;;22.50;99.90;;;;;;4991960;28;20058;-73
2022/07/02 07:14:16;;;;;;;7.13;2.88;;;22.40;99.90;;;;;;4992115;28;20053;-74
2022/07/02 07:16:42;;;;;;;6.03;3.05;;;22.50;99.90;;;;;;4992739;28;20453;-73
2022/07/02 07:19:08;;;;;;;6.57;2.65;;;22.20;99.90;;;;;;4991846;28;20023;-73
2022/07/02 07:21:36;;;;;;;4.95;2.55;;;22.10;99.90;;;;;;4992401;28;20034;-74
2022/07/02 07:24:02;;;;;;;5.30;2.63;;;22.30;99.90;;;;;;4990100;28;20481;-69
2022/07/02 07:26:28;;;;;;;5.65;2.13;;;22.30;99.90;;;;;;4991368;28;20027;-73
2022/07/02 07:28:54;;;;;;;4.43;2.10;;;22.30;99.90;;;;;;4991899;28;20133;-73
2022/07/02 07:31:20;;;;;;;4.50;2.28;;;22.40;99.90;;;;;;4992976;28;20018;-71
2022/07/02 07:33:47;;;;;;;5.82;2.90;;;22.40;99.90;;;;;;4991780;28;20034;-74
2022/07/02 07:36:13;;;;;;;8.68;2.40;;;22.40;99.90;;;;;;4992374;28;20033;-72
2022/07/02 07:38:39;;;;;;;8.50;2.40;;;22.50;99.90;;;;;;4992842;28;20026;-74
2022/07/02 07:41:05;;;;;;;8.38;2.45;;;22.40;99.90;;;;;;4992182;28;20019;-73
2022/07/02 07:43:31;;;;;;;5.68;2.00;;;22.30;99.90;;;;;;4992460;28;20377;-73
2022/07/02 07:45:56;;;;;;;4.00;1.70;;;22.30;99.90;;;;;;4992841;28;20026;-73
2022/07/02 07:48:22;;;;;;;5.75;2.10;;;22.40;99.90;;;;;;4992471;28;20488;-73
2022/07/02 07:50:48;;;;;;;2.83;1.90;;;22.40;99.90;;;;;;4992462;28;20038;-74
2022/07/02 07:53:14;;;;;;;6.30;2.22;;;22.40;99.90;;;;;;4991843;28;20476;-72
2022/07/02 07:55:40;;;;;;;6.40;2.00;;;22.40;99.90;;;;;;4986617;28;20026;-74
2022/07/02 07:58:06;;;;;;;4.57;2.13;;;22.60;99.90;;;;;;4991990;28;20022;-71
2022/07/02 08:00:32;;;;;;;6.40;2.45;;;22.50;99.90;;;;;;4992678;28;20038;-73
2022/07/02 08:02:58;;;;;;;3.63;1.95;;;23.00;99.90;;;;;;4992268;28;20018;-72
2022/07/02 08:05:24;;;;;;;2.42;1.50;;;23.10;99.90;;;;;;4992308;28;20161;-72
2022/07/02 08:07:50;;;;;;;6.45;1.98;;;22.90;99.90;;;;;;4991630;28;20142;-73
2022/07/02 08:10:16;;;;;;;2.80;1.60;;;22.90;99.90;;;;;;4992303;28;20026;-73
2022/07/02 08:12:42;;;;;;;6.78;1.90;;;22.70;99.90;;;;;;4991810;28;20493;-67
2022/07/02 08:15:09;;;;;;;3.75;1.63;;;22.70;99.90;;;;;;4991842;28;20515;-65
2022/07/02 08:17:36;;;;;;;6.47;1.63;;;22.80;99.90;;;;;;4991611;28;20133;-73
2022/07/02 08:20:04;;;;;;;4.07;1.40;;;22.60;99.90;;;;;;4992390;28;20370;-74
2022/07/02 08:22:31;;;;;;;3.97;1.65;;;22.40;99.90;;;;;;4996688;28;20022;-74
2022/07/02 08:24:57;;;;;;;5.40;1.67;;;22.30;99.90;;;;;;4996243;28;20030;-73
2022/07/02 08:27:22;;;;;;;3.88;2.00;;;22.10;99.90;;;;;;4991628;28;20027;-72
2022/07/02 08:29:48;;;;;;;5.13;2.05;;;22.10;99.90;;;;;;4992162;28;20030;-73
2022/07/02 08:32:14;;;;;;;3.63;1.80;;;22.20;99.90;;;;;;4990201;28;20556;-73
2022/07/02 08:34:40;;;;;;;4.43;2.10;;;22.20;99.90;;;;;;4991263;28;20050;-72
2022/07/02 08:37:06;;;;;;;4.40;1.98;;;22.10;99.90;;;;;;4991081;28;20511;-73
2022/07/02 08:39:32;;;;;;;5.65;2.03;;;22.20;99.90;;;;;;4991636;28;20065;-72
2022/07/02 08:41:59;;;;;;;3.25;1.55;;;22.20;99.90;;;;;;4991444;28;20030;-72
2022/07/02 08:44:26;;;;;;;4.25;1.92;;;22.20;99.90;;;;;;4991149;28;20045;-73
2022/07/02 08:46:52;;;;;;;4.63;1.90;;;22.30;99.90;;;;;;4991757;28;20065;-72
2022/07/02 08:49:19;;;;;;;3.50;1.85;;;22.40;99.90;;;;;;4973703;28;20068;-73
2022/07/02 08:52:03;;;;;;;5.40;1.85;;;22.50;99.90;;;;;;4991807;28;20062;-73
2022/07/02 08:54:31;;;;;;;5.80;2.38;;;22.70;99.90;;;;;;4991937;28;22656;-72
2022/07/02 08:57:00;;;;;;;5.70;1.35;;;22.90;99.90;;;;;;4998668;28;20393;-73
2022/07/02 08:59:26;;;;;;;3.00;1.90;;;23.20;99.90;;;;;;4991084;28;20022;-74
2022/07/02 09:01:52;;;;;;;5.43;1.90;;;23.40;99.90;;;;;;4991459;28;20030;-74
2022/07/02 09:04:19;;;;;;;2.88;1.80;;;23.70;99.90;;;;;;4991303;28;20022;-72
2022/07/02 09:06:49;;;;;;;5.95;2.40;;;24.10;99.90;;;;;;4991637;28;20037;-71
2022/07/02 09:09:16;;;;;;;4.53;2.00;;;24.40;99.90;;;;;;4991417;28;20129;-73
2022/07/02 09:11:42;;;;;;;3.20;1.70;;;24.50;99.90;;;;;;4991398;28;20023;-74
2022/07/02 09:14:08;;;;;;;6.32;2.20;;;24.60;99.90;;;;;;4991614;28;20034;-72
2022/07/02 09:16:34;;;;;;;5.05;1.80;;;24.60;99.90;;;;;;4992018;28;20459;-73
2022/07/02 09:19:00;;;;;;;2.10;1.73;;;24.60;99.90;;;;;;4991467;28;20069;-73
2022/07/02 09:21:26;;;;;;;3.42;1.65;;;24.40;99.90;;;;;;4991606;28;20046;-72
2022/07/02 09:23:52;;;;;;;5.40;1.90;;;24.50;99.90;;;;;;4990246;28;20022;-72
2022/07/02 09:41:48;;;;;;;2.60;1.90;;;24.30;99.90;;;;;;5146861;27;20118;-71
2022/07/02 09:44:14;;;;;;;5.60;2.08;;;24.60;99.90;;;;;;5147230;27;20491;-68
2022/07/02 09:46:43;;;;;;;4.68;1.70;;;24.60;99.90;;;;;;5147315;27;20030;-74
2022/07/02 09:49:11;;;;;;;2.67;1.77;;;24.90;99.90;;;;;;5140809;27;20484;-70
2022/07/02 09:51:53;;;;;;;6.03;1.58;;;25.30;99.90;;;;;;5147165;27;20050;-71
2022/07/02 09:54:23;;;;;;;4.68;2.10;;;25.60;99.90;;;;;;5133590;27;20518;-68
2022/07/02 09:56:54;;;;;;;3.80;2.08;;;25.90;99.90;;;;;;5128061;27;20042;-63
2022/07/02 09:59:21;;;;;;;7.13;2.08;;;26.10;99.90;;;;;;5133507;27;20034;-73
2022/07/02 10:01:47;;;;;;;8.15;2.58;;;26.00;99.90;;;;;;5147101;27;20027;-72
2022/07/02 10:04:15;;;;;;;2.75;1.95;;;26.10;99.90;;;;;;5147251;27;20031;-73
2022/07/02 10:06:43;;;;;;;2.60;1.65;;;26.10;99.90;;;;;;5144064;27;20041;-73
2022/07/02 10:09:09;;;;;;;4.60;1.88;;;26.00;99.90;;;;;;5128555;27;20041;-71
2022/07/02 10:11:37;;;;;;;2.53;1.48;;;26.20;99.90;;;;;;5137306;27;20041;-73
2022/07/02 10:14:04;;;;;;;1.83;1.50;;;26.20;99.90;;;;;;5127915;27;20039;-70
2022/07/02 10:16:31;;;;;;;4.93;1.73;;;26.10;99.90;;;;;;5147199;27;20023;-72
2022/07/02 10:19:01;;;;;;;3.58;1.65;;;26.40;99.90;;;;;;5146891;27;20364;-72
2022/07/02 10:21:28;;;;;;;8.68;2.65;;;26.50;99.90;;;;;;5146829;27;20049;-72
2022/07/02 10:23:55;;;;;;;4.85;1.75;;;26.60;99.90;;;;;;5146493;27;20030;-71
2022/07/02 10:26:22;;;;;;;5.47;1.90;;;26.50;99.90;;;;;;5146859;27;20026;-72
2022/07/02 10:28:49;;;;;;;5.07;2.10;;;26.50;99.90;;;;;;5146855;27;20027;-70
2022/07/02 10:31:19;;;;;;;9.57;1.65;;;26.40;99.90;;;;;;5146488;27;20087;-72
2022/07/02 10:34:00;;;;;;;3.75;2.03;;;26.50;99.90;;;;;;5146998;27;20019;-70
2022/07/02 10:36:26;;;;;;;3.20;1.67;;;26.70;99.90;;;;;;5146748;27;20038;-72
2022/07/02 10:39:00;;;;;;;5.53;1.90;;;26.60;99.90;;;;;;5147227;27;20022;-71
2022/07/02 10:41:29;;;;;;;3.42;1.58;;;26.70;99.90;;;;;;5138191;27;20047;-72
2022/07/02 10:43:59;;;;;;;5.57;2.65;;;26.50;99.90;;;;;;5134511;27;20028;-72
2022/07/02 10:46:27;;;;;;;2.38;1.70;;;26.70;99.90;;;;;;5132984;27;20038;-72
2022/07/02 10:48:55;;;;;;;4.10;2.03;;;26.80;99.90;;;;;;5134116;27;20381;-72
2022/07/02 10:51:29;;;;;;;4.57;1.60;;;26.90;99.90;;;;;;5134434;27;20043;-72
2022/07/02 10:54:05;;;;;;;2.67;1.73;;;26.60;99.90;;;;;;5116570;27;20054;-72
2022/07/02 10:56:44;;;;;;;4.95;2.00;;;26.60;99.90;;;;;;5116074;27;20135;-71
2022/07/02 10:59:22;;;;;;;2.97;1.60;;;26.90;99.90;;;;;;5122898;27;20022;-73
2022/07/02 11:02:06;;;;;;;3.60;1.40;;;26.90;99.90;;;;;;5133499;27;20442;-73
2022/07/02 11:04:33;;;;;;;3.20;1.92;;;26.80;99.90;;;;;;5133290;27;20027;-69
2022/07/02 11:07:12;;;;;;;4.32;1.60;;;26.90;99.90;;;;;;5133906;27;20744;-74
2022/07/02 11:09:50;;;;;;;2.55;1.55;;;26.80;99.90;;;;;;5128562;27;20505;-73
2022/07/02 11:12:26;;;;;;;2.30;1.55;;;26.90;99.90;;;;;;5129809;27;20027;-75
2022/07/02 11:14:56;;;;;;;6.68;2.28;;;27.00;99.90;;;;;;5133463;27;20476;-73
2022/07/02 11:17:25;;;;;;;3.03;1.75;;;27.20;99.90;;;;;;5132854;27;20465;-72
2022/07/02 11:19:54;;;;;;;1.70;1.45;;;27.20;99.90;;;;;;5133120;27;20035;-71
2022/07/02 11:22:21;;;;;;;4.05;1.83;;;27.00;99.30;;;;;;5132325;27;20106;-72
2022/07/02 11:24:47;;;;;;;3.40;1.55;;;27.20;99.90;;;;;;5121490;27;20059;-70
2022/07/02 11:27:14;;;;;;;4.53;1.55;;;27.00;99.90;;;;;;5128833;27;20030;-71
2022/07/02 11:29:40;;;;;;;3.10;1.83;;;27.20;99.90;;;;;;5132966;27;20043;-72
2022/07/02 11:32:06;;;;;;;3.15;1.85;;;27.30;97.60;;;;;;5133505;27;20034;-73
2022/07/02 11:34:32;;;;;;;3.28;1.77;;;27.10;99.90;;;;;;5133454;27;20074;-72
2022/07/02 11:36:58;;;;;;;5.13;1.77;;;27.00;99.90;;;;;;5133070;27;20392;-71
2022/07/02 11:39:26;;;;;;;2.42;1.80;;;27.10;99.50;;;;;;5132733;27;20456;-70
2022/07/02 11:41:52;;;;;;;4.60;2.22;;;27.20;99.90;;;;;;5132948;27;20083;-72
2022/07/02 11:44:24;;;;;;;2.40;1.90;;;27.10;99.90;;;;;;5125157;27;20055;-71
2022/07/02 11:46:53;;;;;;;;;;;27.10;99.90;;;;;;5133320;27;20042;-71
2022/07/02 11:49:21;;;;;;;4.13;1.95;;;27.10;99.90;;;;;;5132624;27;19915;-71
2022/07/02 11:51:48;;;;;;;3.75;1.85;;;26.90;99.90;;;;;;5132463;27;20038;-72
2022/07/02 11:54:15;;;;;;;4.95;2.13;;;27.20;99.90;;;;;;5131768;27;20015;-71
2022/07/02 11:56:42;;;;;;;6.38;2.30;;;27.10;99.90;;;;;;5132175;27;20035;-72
2022/07/02 11:59:09;;;;;;;1.67;1.40;;;27.10;99.90;;;;;;5132350;27;20023;-72
2022/07/02 12:01:37;;;;;;;7.07;2.33;;;27.20;99.90;;;;;;5132096;27;20031;-73
2022/07/02 12:04:06;;;;;;;7.47;2.20;;;27.10;99.90;;;;;;5132586;27;20015;-72
2022/07/02 12:06:52;;;;;;;6.18;2.15;;;27.10;99.90;;;;;;5132180;27;20114;-72
2022/07/02 12:09:22;;;;;;;3.92;2.45;;;27.30;99.90;;;;;;5131984;27;20039;-72
2022/07/02 12:11:49;;;;;;;2.55;1.67;;;27.50;99.90;;;;;;5132055;27;20080;-72
2022/07/02 12:14:16;;;;;;;2.90;1.95;;;27.70;99.90;;;;;;5131778;27;20462;-72
2022/07/02 12:16:45;;;;;;;9.90;1.60;;;27.60;99.90;;;;;;5132302;27;20381;-73
2022/07/02 12:19:12;;;;;;;3.25;1.65;;;27.80;99.90;;;;;;5131990;27;20381;-73
2022/07/02 12:21:39;;;;;;;4.70;1.65;;;27.60;98.50;;;;;;5132255;27;20031;-72
2022/07/02 12:24:18;;;;;;;3.85;1.63;;;27.40;98.00;;;;;;5132091;27;20075;-73
2022/07/02 12:26:45;;;;;;;3.20;2.45;;;27.40;99.90;;;;;;5132013;27;20023;-73
2022/07/02 12:32:08;;;;;;;8.30;2.20;;;27.40;99.60;;;;;;5131834;27;20037;-73
2022/07/02 12:34:42;;;;;;;4.38;1.85;;;27.50;99.90;;;;;;5122976;27;20024;-72
2022/07/02 12:37:20;;;;;;;2.20;1.67;;;27.70;99.90;;;;;;5109721;28;20119;-71
2022/07/02 12:39:46;;;;;;;2.13;1.42;;;27.80;99.80;;;;;;5128704;27;20047;-74
2022/07/02 12:42:23;;;;;;;5.55;2.08;;;27.80;99.90;;;;;;5131581;27;20039;-70
2022/07/02 12:44:55;;;;;;;4.28;1.55;;;27.70;98.60;;;;;;5117421;27;20028;-74
2022/07/02 12:47:31;;;;;;;;;;;27.90;99.20;;;;;;5132014;27;20070;-72
2022/07/02 12:50:04;;;;;;;5.82;1.85;;;27.90;97.80;;;;;;5131840;27;19919;-67
2022/07/02 12:52:42;;;;;;;2.08;1.67;;;28.00;98.70;;;;;;5131947;27;20027;-73
2022/07/02 12:55:20;;;;;;;3.28;2.10;;;;;;;;;;5131659;27;20039;-72
2022/07/02 12:57:45;;;;;;;1.65;1.40;;;28.20;96.50;;;;;;5131632;27;20023;-71
2022/07/02 13:00:12;;;;;;;2.38;1.80;;;28.00;96.30;;;;;;5131592;27;20026;-71
2022/07/02 13:02:38;;;;;;;3.33;1.70;;;28.10;98.60;;;;;;5131425;27;20111;-72
2022/07/02 13:05:04;;;;;;;2.53;1.35;;;28.20;97.30;;;;;;5131213;27;20065;-73